Time;durP1;ratioP1;P1;durP2;ratioP2;P2;SDS_P1;SDS_P2;PMS_P1;PMS_P2;Temp;Humidity;BMP_temperature;BMP_pressure;BME280_temperature;BME280_humidity;BME280_pressure;Samples;Min_cycle;Max_cycle;Signal;HPM_P1;HPM_P2
2022/04/20 03:01:03;;;;;;;0.98;0.73;;;18.80;43.10;;;;;;5671900;23;45988;-58
2022/04/20 03:03:28;;;;;;;0.73;0.57;;;18.80;43.10;;;;;;4910114;28;45467;-57
2022/04/20 03:05:54;;;;;;;0.73;0.63;;;18.80;43.10;;;;;;4944712;28;45532;-57
2022/04/20 03:08:20;;;;;;;1.10;0.65;;;18.80;43.20;;;;;;4913116;28;45314;-56
2022/04/20 03:10:46;;;;;;;0.55;0.55;;;18.70;43.10;;;;;;4949216;28;45545;-56
2022/04/20 03:13:12;;;;;;;0.60;0.60;;;18.70;43.10;;;;;;4951742;28;44884;-58
2022/04/20 03:15:37;;;;;;;1.00;0.60;;;18.70;43.10;;;;;;4942526;28;44717;-57
2022/04/20 03:18:03;;;;;;;0.95;0.43;;;18.80;43.20;;;;;;4951306;28;46445;-57
2022/04/20 03:20:28;;;;;;;0.60;0.55;;;18.70;43.20;;;;;;4935916;28;45570;-58
2022/04/20 03:22:54;;;;;;;0.93;0.68;;;18.70;43.20;;;;;;4933386;28;45069;-57
2022/04/20 03:25:20;;;;;;;0.93;0.63;;;18.70;43.30;;;;;;4950980;28;45300;-56
2022/04/20 03:27:45;;;;;;;0.95;0.75;;;18.70;43.20;;;;;;4945853;28;45504;-57
2022/04/20 03:30:12;;;;;;;0.63;0.40;;;18.70;43.20;;;;;;4947649;28;45200;-58
2022/04/20 03:32:39;;;;;;;0.63;0.60;;;18.60;43.20;;;;;;4945032;28;45156;-55
2022/04/20 03:35:05;;;;;;;0.50;0.50;;;18.70;43.20;;;;;;4948807;28;45013;-56
2022/04/20 03:37:30;;;;;;;1.20;0.90;;;18.70;43.20;;;;;;4949283;28;45558;-58
2022/04/20 03:39:57;;;;;;;1.42;0.70;;;18.70;43.20;;;;;;4938501;28;45352;-56
2022/04/20 03:42:22;;;;;;;0.70;0.52;;;18.70;43.20;;;;;;4949349;28;45014;-57
2022/04/20 03:44:48;;;;;;;0.70;0.70;;;18.60;43.30;;;;;;4942293;28;44949;-57
2022/04/20 03:47:13;;;;;;;0.68;0.60;;;18.70;43.30;;;;;;4946177;28;45208;-58
2022/04/20 03:49:39;;;;;;;0.73;0.57;;;18.60;43.20;;;;;;4948438;28;44699;-57
2022/04/20 03:52:08;;;;;;;0.70;0.60;;;18.60;43.20;;;;;;4943734;28;45212;-58
2022/04/20 03:54:37;;;;;;;0.70;0.60;;;18.60;43.30;;;;;;4938373;28;45458;-58
2022/04/20 03:57:03;;;;;;;0.65;0.50;;;18.60;43.30;;;;;;4949182;28;45781;-58
2022/04/20 03:59:33;;;;;;;0.80;0.60;;;18.60;43.30;;;;;;4951122;28;45392;-57
2022/04/20 04:01:59;;;;;;;0.82;0.50;;;18.60;43.40;;;;;;4968762;28;45011;-55
2022/04/20 04:04:25;;;;;;;0.70;0.60;;;18.60;43.30;;;;;;4955509;28;45582;-58
2022/04/20 04:06:51;;;;;;;0.90;0.60;;;18.60;43.30;;;;;;4972489;28;46484;-58
2022/04/20 04:09:16;;;;;;;1.33;0.70;;;18.60;43.30;;;;;;4973938;28;44858;-56
2022/04/20 04:11:42;;;;;;;0.50;0.40;;;18.60;43.40;;;;;;4953777;28;45193;-58
2022/04/20 04:14:08;;;;;;;1.63;0.75;;;18.60;44.00;;;;;;4974021;28;45463;-55
2022/04/20 04:16:36;;;;;;;0.60;0.60;;;18.60;43.40;;;;;;4975332;28;45155;-57
2022/04/20 04:19:03;;;;;;;1.05;0.70;;;18.60;43.50;;;;;;4958365;28;45161;-57
2022/04/20 04:21:29;;;;;;;0.75;0.70;;;18.60;43.50;;;;;;4951992;28;45963;-56
2022/04/20 04:23:54;;;;;;;0.90;0.70;;;18.60;43.40;;;;;;4952298;28;45223;-57
2022/04/20 04:26:20;;;;;;;0.80;0.68;;;18.60;43.40;;;;;;4969480;28;45512;-57
2022/04/20 04:28:46;;;;;;;0.73;0.68;;;18.60;43.40;;;;;;4968181;28;44707;-58
2022/04/20 04:31:11;;;;;;;0.88;0.70;;;18.60;43.50;;;;;;4955916;28;45753;-56
2022/04/20 04:33:37;;;;;;;0.75;0.60;;;18.50;43.40;;;;;;4978983;28;45024;-58
2022/04/20 04:36:02;;;;;;;0.60;0.50;;;18.50;43.40;;;;;;4953586;28;45858;-55
2022/04/20 04:38:28;;;;;;;1.30;0.77;;;18.50;43.40;;;;;;4966987;28;45237;-56
2022/04/20 04:40:54;;;;;;;0.40;0.40;;;18.50;43.40;;;;;;4973188;28;44948;-54
2022/04/20 04:43:19;;;;;;;0.95;0.60;;;18.50;43.40;;;;;;4948432;28;45648;-56
2022/04/20 04:48:39;;;;;;;1.00;0.60;;;18.50;43.50;;;;;;4972545;28;45199;-54
2022/04/20 04:51:05;;;;;;;1.15;0.68;;;18.50;43.50;;;;;;4951790;28;45338;-58
2022/04/20 04:53:31;;;;;;;0.75;0.60;;;18.50;43.50;;;;;;4958507;28;45147;-56
2022/04/20 04:55:57;;;;;;;0.73;0.70;;;18.50;43.50;;;;;;4971479;28;45356;-58
2022/04/20 04:58:22;;;;;;;0.70;0.70;;;18.50;43.50;;;;;;4952066;28;44658;-57
2022/04/20 05:00:48;;;;;;;0.63;0.57;;;18.50;43.40;;;;;;4946175;28;45144;-56
2022/04/20 05:03:17;;;;;;;0.80;0.60;;;18.50;43.50;;;;;;4949277;28;45533;-55
2022/04/20 05:05:43;;;;;;;1.08;0.70;;;18.50;43.50;;;;;;4948444;28;45355;-54
2022/04/20 05:08:09;;;;;;;1.27;0.80;;;18.50;43.50;;;;;;4945528;28;45324;-56
2022/04/20 05:10:35;;;;;;;0.85;0.60;;;18.40;43.50;;;;;;4930338;28;44806;-56
2022/04/20 05:13:00;;;;;;;0.70;0.60;;;18.50;43.60;;;;;;4951025;28;44762;-56
2022/04/20 05:15:27;;;;;;;0.80;0.70;;;18.40;43.50;;;;;;4950381;28;45130;-56
2022/04/20 05:17:52;;;;;;;0.60;0.52;;;18.40;43.60;;;;;;4952670;28;45153;-56
2022/04/20 05:20:21;;;;;;;0.90;0.73;;;18.40;43.60;;;;;;4944549;28;44697;-56
2022/04/20 05:22:47;;;;;;;1.85;0.70;;;18.40;43.60;;;;;;4945741;28;45195;-57
2022/04/20 05:25:12;;;;;;;0.50;0.50;;;18.40;43.50;;;;;;4948797;28;45318;-57
2022/04/20 05:27:38;;;;;;;1.42;0.80;;;18.50;43.50;;;;;;4950474;28;45174;-53
2022/04/20 05:30:05;;;;;;;0.85;0.73;;;18.50;43.40;;;;;;4954831;28;45080;-57
2022/04/20 05:32:30;;;;;;;1.65;0.80;;;18.50;43.30;;;;;;4949979;28;45664;-57
2022/04/20 05:34:56;;;;;;;0.60;0.60;;;18.60;43.30;;;;;;4949176;28;45448;-58
2022/04/20 05:42:50;;;;;;;4.25;0.63;;;18.60;43.20;;;;;;4949848;28;46441;-57
2022/04/20 05:45:16;;;;;;;0.82;0.70;;;18.60;43.20;;;;;;4951858;28;45231;-58
2022/04/20 05:47:42;;;;;;;1.00;0.90;;;18.60;43.10;;;;;;4955647;28;44621;-57
2022/04/20 05:50:08;;;;;;;1.15;0.60;;;18.60;43.00;;;;;;4952214;28;45186;-57
2022/04/20 05:52:33;;;;;;;1.20;0.90;;;18.70;43.10;;;;;;4952532;28;44967;-57
2022/04/20 05:54:59;;;;;;;1.10;0.68;;;18.70;43.00;;;;;;4952837;28;46164;-54
2022/04/20 05:57:24;;;;;;;0.63;0.57;;;18.70;42.90;;;;;;4948103;28;45240;-57
2022/04/20 05:59:50;;;;;;;;;;;18.80;42.90;;;;;;4950457;28;45393;-57
2022/04/20 06:02:16;;;;;;;1.83;1.00;;;18.80;43.00;;;;;;4964241;28;45223;-56
2022/04/20 06:04:42;;;;;;;0.70;0.70;;;18.80;42.90;;;;;;4957749;28;45387;-57
2022/04/20 06:07:07;;;;;;;1.15;0.68;;;18.80;42.90;;;;;;4958866;28;45205;-57
2022/04/20 06:09:33;;;;;;;1.33;0.90;;;18.90;42.90;;;;;;4969486;28;45041;-60
2022/04/20 06:11:59;;;;;;;1.00;0.80;;;18.90;43.40;;;;;;4954024;28;45187;-58
2022/04/20 06:14:24;;;;;;;0.95;0.70;;;19.00;42.80;;;;;;4967887;28;45235;-55
2022/04/20 06:16:50;;;;;;;0.75;0.65;;;18.90;42.70;;;;;;4953091;28;45226;-57
2022/04/20 06:19:16;;;;;;;1.00;0.70;;;19.00;42.80;;;;;;4982875;28;45392;-56
2022/04/20 06:21:41;;;;;;;1.15;0.70;;;19.00;42.80;;;;;;4923973;28;45907;-57
2022/04/20 06:24:07;;;;;;;0.57;0.50;;;19.00;42.80;;;;;;4971626;28;46364;-55
2022/04/20 06:26:33;;;;;;;0.57;0.50;;;19.10;42.80;;;;;;4953034;28;45270;-57
2022/04/20 06:28:58;;;;;;;2.75;0.98;;;19.10;42.80;;;;;;4951931;28;45221;-56
2022/04/20 06:31:24;;;;;;;0.80;0.70;;;19.10;42.80;;;;;;4967507;28;44818;-63
2022/04/20 06:33:49;;;;;;;0.98;0.65;;;19.10;42.80;;;;;;4930771;28;45346;-64
2022/04/20 06:36:15;;;;;;;0.70;0.70;;;19.10;42.80;;;;;;4929851;28;45212;-64
2022/04/20 06:38:41;;;;;;;1.15;0.80;;;19.20;42.90;;;;;;4941146;28;45451;-65
2022/04/20 06:41:06;;;;;;;1.23;0.63;;;19.20;42.90;;;;;;4957744;28;46136;-63
2022/04/20 06:43:32;;;;;;;0.60;0.60;;;19.20;42.90;;;;;;4951566;28;45670;-67
2022/04/20 06:45:58;;;;;;;0.57;0.57;;;19.30;42.90;;;;;;4940547;28;44849;-66
2022/04/20 06:48:25;;;;;;;2.60;0.60;;;19.30;42.90;;;;;;4954389;28;44803;-67
2022/04/20 06:50:50;;;;;;;1.20;0.70;;;19.30;42.90;;;;;;4968403;28;45370;-64
2022/04/20 06:58:44;;;;;;;1.02;0.77;;;19.30;43.10;;;;;;4954523;28;44859;-64
2022/04/20 07:01:10;;;;;;;0.85;0.70;;;19.30;43.20;;;;;;4968815;28;45368;-63
2022/04/20 07:03:36;;;;;;;2.35;0.60;;;19.40;43.20;;;;;;4954939;28;46244;-64
2022/04/20 07:06:02;;;;;;;1.52;0.63;;;19.40;43.10;;;;;;4955370;28;45218;-64
2022/04/20 07:08:28;;;;;;;1.90;0.68;;;19.40;42.90;;;;;;4959872;28;44737;-64
2022/04/20 07:10:54;;;;;;;3.15;0.77;;;19.40;42.90;;;;;;4933517;28;45490;-63
2022/04/20 07:13:19;;;;;;;0.73;0.60;;;19.50;43.00;;;;;;4970099;28;45790;-63
2022/04/20 07:15:45;;;;;;;1.17;0.68;;;19.50;42.90;;;;;;4919296;28;45198;-63
2022/04/20 07:18:11;;;;;;;1.25;0.60;;;19.50;42.90;;;;;;4936958;28;44974;-63
2022/04/20 07:20:37;;;;;;;0.98;0.75;;;19.50;42.90;;;;;;4955923;28;45234;-63
2022/04/20 07:23:02;;;;;;;4.63;0.70;;;19.60;43.00;;;;;;4953714;28;45192;-63
2022/04/20 07:25:29;;;;;;;0.50;0.50;;;19.60;42.80;;;;;;4938655;28;45146;-62
2022/04/20 07:27:55;;;;;;;0.70;0.70;;;19.60;42.80;;;;;;4971101;28;45218;-63
2022/04/20 07:30:20;;;;;;;1.58;0.60;;;19.60;42.80;;;;;;4937918;28;45268;-64
2022/04/20 07:32:47;;;;;;;0.75;0.70;;;19.70;42.80;;;;;;4954826;28;45259;-64
2022/04/20 07:35:13;;;;;;;1.23;0.80;;;19.70;42.80;;;;;;4946702;28;45357;-65
2022/04/20 07:37:38;;;;;;;0.68;0.68;;;19.70;42.70;;;;;;4973233;28;45177;-64
2022/04/20 07:40:05;;;;;;;1.20;0.90;;;19.70;42.70;;;;;;4976541;28;46076;-64
2022/04/20 07:42:30;;;;;;;1.05;0.73;;;19.80;42.80;;;;;;4918741;28;46714;-64
2022/04/20 07:44:57;;;;;;;1.15;0.82;;;19.80;42.90;;;;;;4938479;28;45172;-63
2022/04/20 07:47:27;;;;;;;0.70;0.60;;;19.80;42.80;;;;;;4949835;28;44935;-64
2022/04/20 07:52:41;;;;;;;0.70;0.70;;;19.80;42.90;;;;;;4941280;28;45175;-64
2022/04/20 07:55:13;;;;;;;0.70;0.70;;;19.80;42.80;;;;;;4938017;28;45398;-63
2022/04/20 07:57:39;;;;;;;0.80;0.70;;;19.90;42.90;;;;;;4930494;28;45396;-63
2022/04/20 08:00:06;;;;;;;0.77;0.70;;;19.90;42.90;;;;;;4955600;28;45108;-62
2022/04/20 08:02:31;;;;;;;0.60;0.60;;;19.90;42.80;;;;;;4926595;28;46940;-63
2022/04/20 08:04:57;;;;;;;1.73;0.70;;;19.90;42.80;;;;;;4957710;28;45287;-63
2022/04/20 08:07:23;;;;;;;0.65;0.52;;;19.90;42.80;;;;;;4952943;28;45521;-62
2022/04/20 08:09:48;;;;;;;1.48;0.70;;;19.90;42.80;;;;;;4949180;28;45416;-63
2022/04/20 08:12:14;;;;;;;1.05;0.77;;;19.90;42.80;;;;;;4974682;28;45676;-62
2022/04/20 08:14:39;;;;;;;0.80;0.68;;;20.00;42.90;;;;;;4947372;28;45467;-62
2022/04/20 08:17:05;;;;;;;0.80;0.80;;;20.00;42.90;;;;;;4950463;28;45044;-64
2022/04/20 08:19:31;;;;;;;0.85;0.60;;;20.00;42.80;;;;;;4950015;28;44923;-64
2022/04/20 08:21:58;;;;;;;1.00;0.68;;;20.00;42.80;;;;;;4924062;28;46958;-64
2022/04/20 08:24:24;;;;;;;0.80;0.50;;;20.10;42.90;;;;;;4939979;28;45277;-64
2022/04/20 08:26:49;;;;;;;1.10;0.60;;;20.10;42.80;;;;;;4952410;28;45228;-64
2022/04/20 08:29:15;;;;;;;0.60;0.57;;;20.10;42.80;;;;;;4926092;28;45399;-64
2022/04/20 08:31:40;;;;;;;0.90;0.60;;;20.10;42.80;;;;;;4939345;28;45383;-64
2022/04/20 08:34:06;;;;;;;1.38;0.57;;;20.10;42.80;;;;;;4947014;28;45208;-64
2022/04/20 08:36:32;;;;;;;0.65;0.57;;;20.20;42.80;;;;;;4953320;28;45127;-62
2022/04/20 08:38:57;;;;;;;0.63;0.40;;;20.20;42.80;;;;;;4938336;28;45100;-64
2022/04/20 08:41:23;;;;;;;0.73;0.70;;;20.20;42.80;;;;;;4949609;28;45634;-64
2022/04/20 08:43:49;;;;;;;0.47;0.47;;;20.20;42.70;;;;;;4921884;28;45133;-66
2022/04/20 08:46:16;;;;;;;0.75;0.50;;;20.20;42.80;;;;;;4955801;28;45302;-66
2022/04/20 08:48:41;;;;;;;0.90;0.60;;;20.30;42.80;;;;;;4943262;28;45221;-64
2022/04/20 08:51:07;;;;;;;0.95;0.65;;;20.30;42.80;;;;;;4955470;28;46317;-63
2022/04/20 08:53:33;;;;;;;0.70;0.70;;;20.30;42.80;;;;;;4969711;28;45301;-65
2022/04/20 08:58:47;;;;;;;0.50;0.50;;;20.30;42.80;;;;;;4950499;28;45726;-65
2022/04/20 09:01:13;;;;;;;1.52;0.80;;;20.30;42.80;;;;;;4935029;28;45539;-65
2022/04/20 09:03:39;;;;;;;1.10;0.63;;;20.30;42.80;;;;;;4933850;28;45222;-65
2022/04/20 09:06:05;;;;;;;0.80;0.50;;;20.30;42.80;;;;;;4949781;28;45392;-65
2022/04/20 09:08:31;;;;;;;0.70;0.68;;;20.40;42.80;;;;;;4924724;28;45309;-66
2022/04/20 09:10:57;;;;;;;0.98;0.52;;;20.40;42.80;;;;;;4927205;28;45170;-65
2022/04/20 09:13:38;;;;;;;0.45;0.45;;;20.40;42.70;;;;;;4951522;28;45070;-66
2022/04/20 09:16:11;;;;;;;1.27;0.80;;;20.40;42.70;;;;;;4918410;28;45147;-66
2022/04/20 09:18:37;;;;;;;;;;;20.40;42.70;;;;;;4960856;28;45257;-65
2022/04/20 09:21:13;;;;;;;0.98;0.63;;;20.40;42.80;;;;;;4957540;28;45478;-65
2022/04/20 09:23:39;;;;;;;1.15;0.70;;;20.50;42.80;;;;;;4935720;28;45289;-65
2022/04/20 09:26:11;;;;;;;0.70;0.70;;;20.50;42.70;;;;;;4937250;28;45537;-66
2022/04/20 09:28:42;;;;;;;0.73;0.43;;;20.50;42.80;;;;;;4937839;28;45686;-68
2022/04/20 09:31:09;;;;;;;0.85;0.60;;;20.50;42.70;;;;;;4947621;28;45369;-65
2022/04/20 09:33:45;;;;;;;1.88;0.82;;;20.50;42.70;;;;;;4956534;28;45560;-65
2022/04/20 09:36:14;;;;;;;0.60;0.60;;;20.60;42.80;;;;;;4947378;28;44703;-65
2022/04/20 09:38:59;;;;;;;0.77;0.70;;;20.60;42.70;;;;;;4938067;28;45018;-63
2022/04/20 09:41:25;;;;;;;1.25;0.68;;;20.60;42.70;;;;;;4938098;28;45308;-64
2022/04/20 09:44:06;;;;;;;0.90;0.63;;;20.60;42.70;;;;;;4927667;28;45354;-64
2022/04/20 09:49:24;;;;;;;2.85;0.68;;;20.60;42.70;;;;;;4943391;28;45794;-63
2022/04/20 09:51:49;;;;;;;1.33;0.65;;;20.60;42.60;;;;;;4921637;28;47449;-65
2022/04/20 09:54:28;;;;;;;0.60;0.60;;;20.60;42.70;;;;;;4922648;28;45339;-64
2022/04/20 09:57:20;;;;;;;1.00;0.57;;;20.70;42.80;;;;;;4935036;28;44822;-64
2022/04/20 10:00:12;;;;;;;0.70;0.50;;;20.70;42.70;;;;;;4953265;28;45287;-64
2022/04/20 10:02:58;;;;;;;1.25;0.50;;;20.70;42.70;;;;;;4953912;28;45365;-64
2022/04/20 10:05:24;;;;;;;1.45;0.90;;;20.70;42.70;;;;;;4939805;28;45371;-64
2022/04/20 10:07:54;;;;;;;1.40;0.50;;;20.70;42.70;;;;;;4951932;28;45149;-64
2022/04/20 10:10:20;;;;;;;1.02;0.60;;;20.70;42.70;;;;;;4930653;28;45318;-61
2022/04/20 10:12:46;;;;;;;1.48;0.80;;;20.70;42.70;;;;;;4950331;28;45349;-61
2022/04/20 10:17:56;;;;;;;0.90;0.60;;;20.70;42.80;;;;;;4952500;28;45430;-62
2022/04/20 10:20:28;;;;;;;0.68;0.50;;;20.70;42.80;;;;;;4948379;28;45403;-61
2022/04/20 10:22:54;;;;;;;0.68;0.60;;;20.70;42.70;;;;;;4936910;28;46062;-62
2022/04/20 10:25:20;;;;;;;0.75;0.60;;;20.70;42.70;;;;;;4937775;28;46283;-62
2022/04/20 10:27:58;;;;;;;1.73;0.70;;;20.70;43.30;;;;;;4934050;28;45122;-61
2022/04/20 10:30:43;;;;;;;0.75;0.52;;;20.70;42.70;;;;;;4955363;28;45130;-62
2022/04/20 10:33:11;;;;;;;1.90;0.70;;;20.70;42.70;;;;;;4925321;28;46692;-61
2022/04/20 10:35:56;;;;;;;0.40;0.40;;;20.70;42.80;;;;;;4949804;28;45172;-61
2022/04/20 10:38:23;;;;;;;2.25;0.50;;;20.70;42.80;;;;;;4947198;28;45808;-64
2022/04/20 10:40:59;;;;;;;1.02;0.70;;;20.70;42.80;;;;;;4940309;28;45426;-64
2022/04/20 10:43:25;;;;;;;1.73;0.55;;;20.80;42.60;;;;;;4937571;28;47070;-65
2022/04/20 10:46:17;;;;;;;1.20;0.70;;;20.70;42.60;;;;;;4955171;28;45299;-65
2022/04/20 10:48:58;;;;;;;0.90;0.60;;;20.80;42.60;;;;;;4951711;28;45143;-64
2022/04/20 10:51:30;;;;;;;0.77;0.52;;;20.70;42.60;;;;;;4937731;28;45230;-64
2022/04/20 10:54:29;;;;;;;1.08;0.70;;;20.80;42.60;;;;;;4948906;28;45434;-64
2022/04/20 10:57:01;;;;;;;0.98;0.50;;;20.70;42.70;;;;;;4937775;28;45414;-64
2022/04/20 10:59:30;;;;;;;0.90;0.60;;;20.70;42.70;;;;;;4951520;28;44898;-64
2022/04/20 11:01:59;;;;;;;0.73;0.73;;;20.80;42.70;;;;;;4916816;28;45290;-64
2022/04/20 11:04:34;;;;;;;0.88;0.60;;;20.80;42.70;;;;;;4955088;28;46127;-64
2022/04/20 11:06:59;;;;;;;1.23;0.73;;;20.80;42.70;;;;;;4951757;28;45509;-63
2022/04/20 11:09:48;;;;;;;2.72;0.70;;;20.80;42.80;;;;;;4949407;28;45368;-64
2022/04/20 11:21:05;;;;;;;0.73;0.60;;;20.80;42.90;;;;;;4949036;28;45856;-64
2022/04/20 11:23:51;;;;;;;1.40;0.70;;;20.80;42.90;;;;;;4946884;28;45475;-63
2022/04/20 11:26:21;;;;;;;2.45;0.60;;;20.80;42.90;;;;;;4952659;28;45215;-63
2022/04/20 11:28:50;;;;;;;2.17;0.60;;;20.80;42.80;;;;;;4926669;28;45285;-62
2022/04/20 11:31:15;;;;;;;0.93;0.47;;;20.80;42.90;;;;;;4947002;28;46803;-63
2022/04/20 11:33:41;;;;;;;0.55;0.55;;;20.90;43.00;;;;;;4936896;28;45640;-63
2022/04/20 11:36:09;;;;;;;0.68;0.50;;;20.80;42.90;;;;;;4936388;28;46784;-66
2022/04/20 11:38:41;;;;;;;0.85;0.70;;;20.90;43.00;;;;;;4943573;28;45220;-64
2022/04/20 11:41:11;;;;;;;0.90;0.63;;;20.90;43.00;;;;;;4931034;28;45548;-64
2022/04/20 11:43:40;;;;;;;0.88;0.60;;;20.90;43.10;;;;;;4926037;28;45724;-64
2022/04/20 11:46:07;;;;;;;0.70;0.57;;;20.90;43.00;;;;;;4947890;28;46306;-65
2022/04/20 11:48:37;;;;;;;3.15;0.70;;;20.90;43.00;;;;;;4926125;28;45206;-64
2022/04/20 11:51:07;;;;;;;2.80;0.60;;;20.90;43.10;;;;;;4947843;28;45398;-66
2022/04/20 11:53:33;;;;;;;0.75;0.52;;;20.90;43.10;;;;;;4948532;28;45226;-63
2022/04/20 11:56:01;;;;;;;0.50;0.50;;;21.00;43.10;;;;;;4947171;28;45921;-64
2022/04/20 11:58:26;;;;;;;0.50;0.50;;;20.90;43.10;;;;;;4926555;28;44708;-63
2022/04/20 12:01:03;;;;;;;1.67;0.40;;;21.00;43.10;;;;;;4928944;28;45856;-65
2022/04/20 12:03:33;;;;;;;0.50;0.50;;;21.00;43.20;;;;;;4924271;28;46166;-65
2022/04/20 12:06:06;;;;;;;1.00;0.77;;;20.90;43.20;;;;;;4949181;28;46087;-65
2022/04/20 12:08:32;;;;;;;0.88;0.60;;;21.00;43.20;;;;;;4936705;28;46255;-64
2022/04/20 12:11:02;;;;;;;0.60;0.50;;;20.90;43.20;;;;;;4939475;28;45432;-65
2022/04/20 12:13:29;;;;;;;1.20;0.45;;;21.00;43.20;;;;;;4949723;28;45393;-64
2022/04/20 12:16:05;;;;;;;1.20;0.63;;;21.00;43.20;;;;;;4895291;28;45180;-64
2022/04/20 12:18:38;;;;;;;0.73;0.68;;;21.00;43.20;;;;;;4938841;28;45123;-64
2022/04/20 12:21:04;;;;;;;2.85;0.50;;;21.00;43.20;;;;;;4925188;28;44874;-63
2022/04/20 12:23:34;;;;;;;1.48;0.57;;;21.00;43.20;;;;;;4942188;28;45623;-63
2022/04/20 12:26:02;;;;;;;1.27;0.68;;;21.00;43.20;;;;;;4949927;28;46023;-64
2022/04/20 12:28:44;;;;;;;0.93;0.50;;;21.00;43.20;;;;;;4935731;28;45674;-63
2022/04/20 12:31:12;;;;;;;0.93;0.80;;;21.00;43.80;;;;;;4928264;28;45256;-66
2022/04/20 12:33:41;;;;;;;0.63;0.55;;;21.00;43.20;;;;;;4935805;28;45275;-65
2022/04/20 12:36:11;;;;;;;1.58;0.63;;;21.00;43.10;;;;;;4929213;28;47190;-64
2022/04/20 12:38:47;;;;;;;0.70;0.57;;;21.00;43.10;;;;;;4932893;28;45210;-64
2022/04/20 12:41:41;;;;;;;1.15;0.68;;;21.00;43.10;;;;;;4931759;28;45501;-66
2022/04/20 12:44:35;;;;;;;0.80;0.60;;;21.10;43.20;;;;;;4950201;28;45444;-64
2022/04/20 12:47:14;;;;;;;0.50;0.50;;;21.10;43.10;;;;;;4952233;28;46416;-65
2022/04/20 12:49:40;;;;;;;0.73;0.63;;;21.10;43.10;;;;;;4952451;28;45190;-66
2022/04/20 12:52:14;;;;;;;1.00;0.60;;;21.10;43.00;;;;;;4922382;28;45393;-65
2022/04/20 12:54:40;;;;;;;;;;;21.10;43.00;;;;;;4953148;28;45542;-65
2022/04/20 13:02:59;;;;;;;0.88;0.52;;;21.10;43.10;;;;;;4946125;28;45147;-66
2022/04/20 13:05:25;;;;;;;1.00;0.68;;;21.20;43.00;;;;;;4951782;28;45297;-65
2022/04/20 13:07:51;;;;;;;0.75;0.60;;;21.20;43.00;;;;;;4953779;28;45712;-65
2022/04/20 13:10:17;;;;;;;1.50;0.75;;;21.10;43.00;;;;;;4953305;28;45582;-65
2022/04/20 13:12:50;;;;;;;1.13;0.80;;;21.20;43.00;;;;;;4931029;28;45535;-65
2022/04/20 13:15:16;;;;;;;;;;;21.20;43.00;;;;;;4951621;28;45205;-65
2022/04/20 13:17:41;;;;;;;1.88;0.77;;;21.20;43.20;;;;;;4950134;28;45224;-65
2022/04/20 13:20:07;;;;;;;0.70;0.60;;;21.20;43.00;;;;;;4934750;28;45072;-66
2022/04/20 13:22:33;;;;;;;3.17;0.60;;;21.20;43.00;;;;;;4935994;28;45236;-65
2022/04/20 13:27:55;;;;;;;0.90;0.80;;;21.20;43.00;;;;;;4948368;28;46592;-65
2022/04/20 13:30:35;;;;;;;1.08;0.65;;;21.20;43.10;;;;;;4937722;28;45273;-65
2022/04/20 13:33:02;;;;;;;1.90;0.60;;;21.20;43.10;;;;;;4936459;28;45355;-66
2022/04/20 13:35:28;;;;;;;2.90;0.63;;;21.20;43.10;;;;;;4939612;28;45308;-65
2022/04/20 13:37:54;;;;;;;1.35;0.60;;;21.20;43.10;;;;;;4935579;28;47176;-67
2022/04/20 13:40:20;;;;;;;1.25;0.70;;;21.20;43.10;;;;;;4929700;28;45461;-64
2022/04/20 13:42:46;;;;;;;0.73;0.68;;;21.20;43.10;;;;;;4934481;28;45226;-65
2022/04/20 13:45:11;;;;;;;1.00;0.75;;;21.20;43.10;;;;;;4937082;28;44733;-65
2022/04/20 13:47:37;;;;;;;0.63;0.60;;;21.20;43.10;;;;;;4931028;28;45333;-66
2022/04/20 13:50:03;;;;;;;1.13;0.70;;;21.30;43.20;;;;;;4933869;28;45523;-65
2022/04/20 13:52:29;;;;;;;2.42;0.85;;;21.30;43.20;;;;;;4927058;28;44674;-64
2022/04/20 13:54:55;;;;;;;1.10;0.60;;;21.30;43.20;;;;;;4944664;28;46031;-65
2022/04/20 13:57:21;;;;;;;1.55;0.60;;;21.30;43.20;;;;;;4947927;28;45281;-65
2022/04/20 13:59:47;;;;;;;2.60;0.70;;;21.30;43.30;;;;;;4916178;28;45129;-65
2022/04/20 14:02:13;;;;;;;2.65;0.60;;;21.30;43.30;;;;;;4937531;28;45372;-66
2022/04/20 14:04:39;;;;;;;1.40;0.65;;;21.30;43.30;;;;;;4934002;28;45268;-66
2022/04/20 14:07:05;;;;;;;0.50;0.50;;;21.30;43.30;;;;;;4945969;28;45378;-66
2022/04/20 14:09:30;;;;;;;0.88;0.70;;;21.30;43.30;;;;;;4949546;28;45222;-65
2022/04/20 14:11:57;;;;;;;2.08;0.70;;;21.30;43.30;;;;;;4936362;28;45149;-64
2022/04/20 14:14:22;;;;;;;0.50;0.50;;;21.30;43.30;;;;;;4952989;28;45468;-66
2022/04/20 14:16:48;;;;;;;1.23;0.73;;;21.30;43.30;;;;;;4953597;28;46523;-65
2022/04/20 14:19:14;;;;;;;0.80;0.77;;;21.30;43.40;;;;;;4951049;28;45665;-63
2022/04/20 14:21:40;;;;;;;2.50;0.60;;;21.30;43.40;;;;;;4937881;28;45483;-64
2022/04/20 14:24:06;;;;;;;0.60;0.52;;;21.30;43.30;;;;;;4945935;28;45403;-64
2022/04/20 14:32:12;;;;;;;0.50;0.50;;;21.30;43.50;;;;;;4948304;28;44856;-67
2022/04/20 14:34:49;;;;;;;0.57;0.50;;;21.30;43.30;;;;;;4952688;28;45671;-63
2022/04/20 14:37:15;;;;;;;2.20;0.60;;;21.40;43.40;;;;;;4932746;28;46298;-63
2022/04/20 14:39:41;;;;;;;1.48;0.63;;;21.30;44.00;;;;;;4938763;28;44966;-63
2022/04/20 14:42:07;;;;;;;0.80;0.75;;;21.30;43.30;;;;;;4950037;28;44911;-65
2022/04/20 14:44:36;;;;;;;0.88;0.57;;;21.30;43.30;;;;;;4922144;28;45081;-65
2022/04/20 14:47:03;;;;;;;0.95;0.50;;;21.30;43.40;;;;;;4955682;28;45595;-65
2022/04/20 14:49:29;;;;;;;0.80;0.60;;;21.40;43.40;;;;;;4921732;28;45382;-64
2022/04/20 14:51:56;;;;;;;0.80;0.63;;;21.40;43.40;;;;;;4950827;28;44766;-64
2022/04/20 14:54:21;;;;;;;0.75;0.60;;;21.40;43.40;;;;;;4952045;28;44768;-64
2022/04/20 14:56:47;;;;;;;4.90;0.70;;;21.40;43.40;;;;;;4943799;28;45029;-64
2022/04/20 14:59:12;;;;;;;0.80;0.60;;;21.40;43.30;;;;;;4948903;28;45509;-64
2022/04/20 15:01:38;;;;;;;0.90;0.65;;;21.40;43.40;;;;;;4950744;28;44716;-64
2022/04/20 15:04:04;;;;;;;1.10;0.68;;;21.40;43.40;;;;;;4950352;28;45225;-64
2022/04/20 15:06:30;;;;;;;0.73;0.70;;;21.40;43.30;;;;;;4904066;28;47995;-64
2022/04/20 15:09:01;;;;;;;0.95;0.60;;;21.40;43.40;;;;;;4948428;28;45225;-64
2022/04/20 15:11:27;;;;;;;0.65;0.65;;;21.40;43.40;;;;;;4948581;28;45374;-67
2022/04/20 15:13:53;;;;;;;0.60;0.60;;;21.40;43.40;;;;;;4939547;28;44774;-66
2022/04/20 15:16:18;;;;;;;0.82;0.70;;;21.40;43.40;;;;;;4950175;28;45261;-66
2022/04/20 15:18:44;;;;;;;1.23;0.70;;;21.40;43.30;;;;;;4925749;28;45191;-66
2022/04/20 15:21:10;;;;;;;1.35;0.68;;;21.40;43.40;;;;;;4950109;28;44658;-66
2022/04/20 15:23:37;;;;;;;1.35;0.60;;;21.40;43.40;;;;;;4938284;28;45511;-66
2022/04/20 15:26:03;;;;;;;0.70;0.52;;;21.40;43.50;;;;;;4900369;28;47009;-66
2022/04/20 15:28:29;;;;;;;0.95;0.70;;;21.40;43.50;;;;;;4949280;28;45151;-67
2022/04/20 15:30:56;;;;;;;1.40;0.57;;;21.40;43.40;;;;;;4935798;28;45131;-66
2022/04/20 15:33:22;;;;;;;0.65;0.63;;;21.30;43.40;;;;;;4931922;28;44706;-66
2022/04/20 15:35:48;;;;;;;0.77;0.60;;;21.30;43.40;;;;;;4946317;28;46028;-67
2022/04/20 15:38:13;;;;;;;0.75;0.60;;;21.40;43.40;;;;;;4929733;28;46272;-67
2022/04/20 15:40:42;;;;;;;1.73;0.77;;;21.40;43.50;;;;;;4917984;28;45225;-68
2022/04/20 15:43:09;;;;;;;1.83;0.70;;;21.30;43.50;;;;;;4948773;28;45428;-68
2022/04/20 15:45:37;;;;;;;4.30;0.55;;;21.30;43.50;;;;;;4919632;28;46412;-67
2022/04/20 15:48:04;;;;;;;1.00;0.70;;;21.30;43.50;;;;;;4949686;28;45168;-67
2022/04/20 15:50:31;;;;;;;1.95;0.90;;;21.30;43.50;;;;;;4922089;28;45409;-67
2022/04/20 15:52:57;;;;;;;0.77;0.50;;;21.30;43.50;;;;;;4943618;28;45515;-67
2022/04/20 16:00:51;;;;;;;0.60;0.60;;;21.20;43.40;;;;;;4952989;28;45213;-67
2022/04/20 16:03:17;;;;;;;0.77;0.60;;;21.20;43.50;;;;;;4967558;28;45231;-67
2022/04/20 16:05:43;;;;;;;1.10;0.63;;;21.20;43.40;;;;;;4936728;28;45726;-67
2022/04/20 16:08:09;;;;;;;0.85;0.60;;;21.20;43.40;;;;;;4973701;28;45398;-67
2022/04/20 16:10:35;;;;;;;0.60;0.60;;;21.20;43.50;;;;;;4937674;28;45281;-67
2022/04/20 16:13:01;;;;;;;2.58;0.70;;;21.20;43.50;;;;;;4958610;28;45291;-67
2022/04/20 16:15:27;;;;;;;0.90;0.70;;;21.10;43.40;;;;;;4933285;28;45070;-67
2022/04/20 16:17:53;;;;;;;0.60;0.60;;;21.10;44.00;;;;;;4969838;28;45296;-66
2022/04/20 16:20:18;;;;;;;0.90;0.70;;;21.10;43.40;;;;;;4956581;28;45583;-67
2022/04/20 16:22:45;;;;;;;1.48;0.80;;;21.10;43.50;;;;;;4954726;28;45546;-67
2022/04/20 16:25:11;;;;;;;0.80;0.73;;;21.10;43.40;;;;;;4905301;28;46624;-68
2022/04/20 16:27:37;;;;;;;0.55;0.45;;;21.10;43.60;;;;;;4957680;28;46059;-67
2022/04/20 16:30:03;;;;;;;1.48;0.80;;;21.10;43.60;;;;;;4936086;28;44973;-67
2022/04/20 16:32:28;;;;;;;2.80;0.70;;;21.10;43.70;;;;;;4954534;28;45271;-67
2022/04/20 16:34:55;;;;;;;0.70;0.55;;;21.10;43.70;;;;;;4945826;28;46673;-67
2022/04/20 16:37:24;;;;;;;0.73;0.47;;;21.10;43.70;;;;;;4927979;28;45384;-67
2022/04/20 16:39:50;;;;;;;1.10;0.60;;;21.10;43.70;;;;;;4955371;28;45377;-68
2022/04/20 16:42:15;;;;;;;0.93;0.60;;;21.10;43.70;;;;;;4967199;28;45409;-67
2022/04/20 16:44:41;;;;;;;0.85;0.63;;;21.10;43.70;;;;;;4952155;28;46461;-67